Time;durP1;ratioP1;P1;durP2;ratioP2;P2;SDS_P1;SDS_P2;PMS_P1;PMS_P2;Temp;Humidity;BMP_temperature;BMP_pressure;BME280_temperature;BME280_humidity;BME280_pressure;Samples;Min_cycle;Max_cycle;Signal;HPM_P1;HPM_P2
2022/01/30 00:00:56;;;;;;;4.25;1.75;;;;;;;4.78;91.61;96168.00;4990800;28;20049;-74
2022/01/30 00:03:22;;;;;;;2.88;1.77;;;;;;;4.81;91.61;96170.19;4997737;28;20042;-74
2022/01/30 00:05:48;;;;;;;2.83;1.60;;;;;;;4.77;91.73;96161.19;5001248;28;20049;-74
2022/01/30 00:08:14;;;;;;;2.45;1.50;;;;;;;4.79;91.80;96153.97;4990401;28;20054;-75
2022/01/30 00:10:40;;;;;;;3.33;1.83;;;;;;;4.75;91.94;96147.59;5000789;28;20451;-74
2022/01/30 00:13:12;;;;;;;3.08;1.80;;;;;;;4.77;91.95;96148.16;4999893;28;20488;-73
2022/01/30 00:21:01;;;;;;;3.17;1.43;;;;;;;4.66;92.84;96144.47;5002008;28;20046;-74
2022/01/30 00:23:29;;;;;;;2.97;1.70;;;;;;;4.74;92.96;96159.84;5002825;28;20074;-75
2022/01/30 00:25:57;;;;;;;2.42;1.50;;;;;;;4.71;92.80;96156.84;4998552;28;20046;-74
2022/01/30 00:28:25;;;;;;;5.45;1.92;;;;;;;4.73;93.20;96149.63;4990028;28;20423;-74
2022/01/30 00:30:51;;;;;;;2.97;1.70;;;;;;;4.79;92.65;96143.53;4999410;28;20585;-74
2022/01/30 00:33:17;;;;;;;3.08;1.38;;;;;;;4.74;92.92;96146.00;4991859;28;20038;-74
2022/01/30 00:35:42;;;;;;;3.15;1.70;;;;;;;4.75;92.76;96147.59;4991398;28;20092;-73
2022/01/30 00:38:15;;;;;;;2.50;1.40;;;;;;;4.78;92.81;96147.16;5004122;28;20045;-74
2022/01/30 00:40:41;;;;;;;1.98;1.45;;;;;;;4.72;92.59;96153.25;4993603;28;20581;-74
2022/01/30 00:43:07;;;;;;;2.40;1.40;;;;;;;4.76;92.20;96144.75;4999202;28;20053;-74
2022/01/30 00:45:33;;;;;;;2.83;1.50;;;;;;;4.66;93.06;96150.47;5012762;28;20438;-73
2022/01/30 00:47:58;;;;;;;2.63;1.70;;;;;;;4.85;91.67;96153.09;5002308;28;20663;-74
2022/01/30 00:50:24;;;;;;;3.00;1.77;;;;;;;4.81;92.21;96154.53;4985131;28;20046;-74
2022/01/30 00:52:53;;;;;;;2.70;1.60;;;;;;;4.76;92.14;96149.19;4999184;28;20555;-74
2022/01/30 00:55:20;;;;;;;2.63;1.60;;;;;;;4.75;92.14;96134.56;4993716;28;20038;-74
2022/01/30 00:57:45;;;;;;;2.38;1.50;;;;;;;4.78;92.79;96147.16;4993937;28;20042;-74
2022/01/30 01:00:12;;;;;;;3.70;1.60;;;;;;;4.84;91.75;96130.63;4999673;28;20108;-74
2022/01/30 01:02:38;;;;;;;2.08;1.50;;;;;;;4.78;92.46;96144.53;4993629;28;20089;-74
2022/01/30 01:05:05;;;;;;;1.90;1.20;;;;;;;4.85;91.70;96132.22;4993354;28;20042;-74
2022/01/30 01:07:33;;;;;;;1.77;1.50;;;;;;;4.83;92.12;96134.28;4993732;28;20065;-74
2022/01/30 01:10:18;;;;;;;2.13;1.40;;;;;;;4.84;91.99;96131.44;4989680;28;20688;-74
2022/01/30 01:21:00;;;;;;;1.45;1.20;;;;;;;4.85;91.44;96124.41;5000253;28;20043;-74
2022/01/30 01:23:42;;;;;;;1.98;1.38;;;;;;;4.84;91.72;96136.66;4998048;28;20571;-75
2022/01/30 01:26:07;;;;;;;1.65;1.23;;;;;;;4.80;91.66;96129.50;4989289;28;20046;-74
2022/01/30 01:28:33;;;;;;;1.88;1.23;;;;;;;4.84;91.49;96130.63;4987943;28;20049;-74
2022/01/30 01:30:59;;;;;;;1.70;1.20;;;;;;;4.84;91.59;96141.06;4989759;28;20492;-74
2022/01/30 01:33:32;;;;;;;1.30;1.20;;;;;;;4.78;91.39;96137.50;4988932;28;20038;-74
2022/01/30 01:35:58;;;;;;;1.67;1.25;;;;;;;4.82;91.38;96148.31;4989057;28;20094;-74
2022/01/30 01:38:23;;;;;;;2.20;1.33;;;;;;;4.91;90.56;96128.75;4996862;28;20564;-75
2022/01/30 01:40:54;;;;;;;1.80;1.23;;;;;;;4.84;90.97;96135.84;4987896;28;20053;-73
2022/01/30 01:43:21;;;;;;;1.30;1.10;;;;;;;4.91;90.46;96144.41;4991289;28;20046;-74
2022/01/30 01:45:51;;;;;;;1.63;1.17;;;;;;;4.81;90.63;96141.50;4999378;28;20113;-73
2022/01/30 01:48:16;;;;;;;1.63;1.25;;;;;;;4.91;90.38;96131.34;4994845;28;20053;-74
2022/01/30 01:50:50;;;;;;;1.30;0.95;;;;;;;4.89;90.15;96143.81;4989051;28;20050;-74
2022/01/30 01:53:19;;;;;;;2.15;1.17;;;;;;;4.89;89.92;96149.03;4989138;28;20053;-73
2022/01/30 01:55:45;;;;;;;1.10;1.10;;;;;;;4.85;90.00;96132.22;4989458;28;20052;-74
2022/01/30 01:58:11;;;;;;;1.55;1.00;;;;;;;4.86;90.15;96144.28;4988957;28;20046;-74
2022/01/30 02:00:37;;;;;;;1.27;0.98;;;;;;;4.77;90.49;96145.56;4997298;28;20054;-74
2022/01/30 02:03:04;;;;;;;1.58;1.08;;;;;;;4.88;89.81;96126.59;4990115;28;20042;-74
2022/01/30 02:05:33;;;;;;;2.00;1.27;;;;;;;4.82;90.15;96101.38;4995080;28;20089;-74
2022/01/30 02:10:54;;;;;;;1.10;0.98;;;;;;;4.83;89.51;96082.91;4988919;28;20072;-73
2022/01/30 02:24:19;;;;;;;0.70;0.70;;;;;;;4.80;89.19;96100.81;4994717;28;19921;-73
2022/01/30 02:26:46;;;;;;;1.33;1.00;;;;;;;4.81;89.27;96111.03;4981915;28;20046;-74
2022/01/30 02:29:13;;;;;;;0.93;0.90;;;;;;;4.83;89.40;96092.56;4992433;28;20433;-74
2022/01/30 02:31:40;;;;;;;0.90;0.70;;;;;;;4.84;88.77;96088.91;4992093;28;20046;-74
2022/01/30 02:34:07;;;;;;;1.17;0.90;;;;;;;4.86;88.89;96087.69;4992492;28;20039;-74
2022/01/30 02:36:44;;;;;;;1.33;1.10;;;;;;;4.76;89.10;96087.41;4991616;28;20386;-74
2022/01/30 02:39:10;;;;;;;1.67;1.05;;;;;;;4.79;88.99;96075.75;4997774;28;20042;-74
2022/01/30 02:41:38;;;;;;;0.80;0.80;;;;;;;4.81;88.42;96073.69;4995914;28;20035;-74
2022/01/30 02:44:10;;;;;;;1.10;0.90;;;;;;;4.73;88.93;96072.19;4993094;28;20046;-74
2022/01/30 02:46:41;;;;;;;1.00;0.90;;;;;;;4.82;88.59;96081.31;4994411;28;20038;-74
2022/01/30 02:49:45;;;;;;;1.45;1.00;;;;;;;4.83;88.31;96087.34;4997369;28;20065;-74
2022/01/30 02:52:02;;;;;;;1.45;1.10;;;;;;;4.76;88.42;96089.22;4989186;28;20046;-74
2022/01/30 02:54:30;;;;;;;1.65;1.05;;;;;;;4.80;88.32;96093.00;4992859;28;20508;-74
2022/01/30 02:56:56;;;;;;;1.25;0.90;;;;;;;4.78;88.54;96095.00;4990738;28;20422;-74
2022/01/30 02:59:23;;;;;;;1.13;0.90;;;;;;;4.71;88.23;96081.25;4992198;28;20050;-73
2022/01/30 03:01:49;;;;;;;1.25;1.00;;;;;;;4.66;88.75;96067.03;5002695;28;20038;-74
2022/01/30 03:04:16;;;;;;;1.35;1.10;;;;;;;4.68;89.01;96080.69;4992378;28;20050;-74
2022/01/30 03:06:42;;;;;;;1.25;1.00;;;;;;;4.63;88.99;96075.31;4994163;28;20042;-74
2022/01/30 03:09:09;;;;;;;1.27;0.98;;;;;;;4.74;88.32;96083.41;4995685;28;20042;-74
2022/01/30 03:11:35;;;;;;;1.27;1.05;;;;;;;4.60;89.10;96082.78;4991525;28;20038;-73
2022/01/30 03:14:03;;;;;;;1.90;1.50;;;;;;;4.67;88.61;96073.84;4989737;28;20119;-73
2022/01/30 03:16:28;;;;;;;1.67;1.30;;;;;;;4.58;88.91;96075.16;4991273;28;20129;-74
2022/01/30 03:18:54;;;;;;;1.40;1.08;;;;;;;4.62;89.03;96065.88;4981350;28;20118;-74
2022/01/30 03:21:19;;;;;;;3.13;1.30;;;;;;;4.65;89.07;96070.66;4999070;28;20042;-74
2022/01/30 03:23:45;;;;;;;1.80;1.00;;;;;;;4.58;88.85;96090.78;4984209;28;20051;-74
2022/01/30 03:26:13;;;;;;;3.40;1.40;;;;;;;4.55;88.98;96086.00;4989995;28;20124;-74
2022/01/30 03:28:40;;;;;;;1.90;1.20;;;;;;;4.58;88.76;96093.38;4998834;28;20046;-74
2022/01/30 03:31:09;;;;;;;1.92;1.13;;;;;;;4.64;88.60;96089.94;4991622;28;20049;-74
2022/01/30 03:33:35;;;;;;;1.45;1.20;;;;;;;4.67;88.24;96097.31;4990711;28;20643;-74
2022/01/30 03:36:01;;;;;;;1.65;1.17;;;;;;;4.62;90.09;96097.16;4991419;28;20057;-74
2022/01/30 03:38:26;;;;;;;2.35;1.40;;;;;;;4.52;91.65;96091.66;4991481;28;20047;-73
2022/01/30 03:40:53;;;;;;;1.88;1.17;;;;;;;4.51;92.25;96095.28;4999326;28;20121;-73
2022/01/30 03:43:19;;;;;;;1.33;1.17;;;;;;;4.38;93.31;96090.19;4991159;28;20043;-74
2022/01/30 03:45:46;;;;;;;1.65;1.20;;;;;;;4.44;93.06;96091.94;4991741;28;20057;-74
2022/01/30 03:48:14;;;;;;;3.05;1.33;;;;;;;4.33;93.52;96098.66;5007531;28;20038;-74
2022/01/30 03:50:41;;;;;;;1.30;1.20;;;;;;;4.36;92.54;96119.09;4992766;28;20065;-74
2022/01/30 03:53:07;;;;;;;2.72;1.40;;;;;;;4.38;92.62;96116.25;4991303;28;20042;-74
2022/01/30 03:55:33;;;;;;;1.90;1.40;;;;;;;4.31;92.63;96117.13;4991050;28;20050;-73
2022/01/30 03:57:58;;;;;;;1.45;1.20;;;;;;;4.37;93.10;96125.06;4990398;28;20042;-74
2022/01/30 04:00:24;;;;;;;1.90;1.25;;;;;;;4.33;92.75;96115.09;4999157;28;20419;-74
2022/01/30 04:02:50;;;;;;;1.65;1.15;;;;;;;4.41;92.16;96121.03;5008672;28;20125;-74
2022/01/30 04:05:16;;;;;;;1.52;1.27;;;;;;;4.41;91.68;96121.03;4990034;28;20077;-74
2022/01/30 04:07:42;;;;;;;1.77;1.45;;;;;;;4.33;92.18;96115.09;4993858;28;20041;-74
2022/01/30 04:10:08;;;;;;;1.52;1.25;;;;;;;4.44;91.34;96125.81;4994564;28;20068;-73
2022/01/30 04:12:34;;;;;;;2.03;1.13;;;;;;;4.43;91.09;96114.59;4998866;28;20042;-74
2022/01/30 04:15:00;;;;;;;1.33;1.20;;;;;;;4.39;91.53;96110.03;4990425;28;20523;-74
2022/01/30 04:17:26;;;;;;;2.13;1.30;;;;;;;4.35;91.46;96117.47;4990687;28;20038;-74
2022/01/30 04:19:52;;;;;;;2.25;1.33;;;;;;;4.38;91.51;96105.84;4990362;28;20042;-74
2022/01/30 04:22:17;;;;;;;2.45;1.52;;;;;;;4.44;91.40;96115.38;4990877;28;20050;-74
2022/01/30 04:24:43;;;;;;;2.10;1.38;;;;;;;4.43;90.99;96121.63;4990452;28;20092;-74
2022/01/30 04:27:09;;;;;;;4.03;1.45;;;;;;;4.39;91.47;96112.66;4990207;28;20161;-74
2022/01/30 04:29:35;;;;;;;1.75;1.35;;;;;;;4.46;90.43;96103.75;4999132;28;20504;-74
2022/01/30 04:32:03;;;;;;;2.78;1.70;;;;;;;4.37;92.03;96104.22;4998825;28;20046;-74
2022/01/30 04:34:30;;;;;;;2.78;1.30;;;;;;;4.40;91.68;96116.84;4989464;28;20042;-73
2022/01/30 05:03:07;;;;;;;3.40;1.90;;;;;;;4.30;93.02;96146.00;4990046;28;20053;-74
2022/01/30 05:08:11;;;;;;;4.65;2.00;;;;;;;4.29;93.53;96155.59;4988033;28;20038;-74
2022/01/30 05:10:37;;;;;;;4.38;1.88;;;;;;;4.37;92.93;96171.97;4979563;28;20493;-74
2022/01/30 05:13:06;;;;;;;3.53;1.92;;;;;;;4.38;93.12;96152.75;4989659;28;20057;-73
2022/01/30 05:15:32;;;;;;;3.05;1.80;;;;;;;4.37;93.15;96156.34;4989183;28;20034;-74
2022/01/30 05:17:57;;;;;;;2.42;1.63;;;;;;;4.38;93.26;96157.94;4979949;28;20050;-74
2022/01/30 05:20:23;;;;;;;3.20;2.00;;;;;;;4.43;92.45;96160.72;4989379;28;20606;-74
2022/01/30 05:22:49;;;;;;;6.13;2.15;;;;;;;4.46;92.26;96162.91;4989951;28;20043;-74
2022/01/30 05:25:15;;;;;;;3.58;2.00;;;;;;;4.48;91.36;96160.88;4986813;28;20053;-74
2022/01/30 05:27:41;;;;;;;4.53;2.10;;;;;;;4.52;90.96;96151.59;4988786;28;20038;-73
2022/01/30 05:30:07;;;;;;;4.75;2.30;;;;;;;4.45;91.21;96158.69;4989353;28;20519;-74
2022/01/30 05:32:34;;;;;;;6.40;2.20;;;;;;;4.51;91.37;96169.06;4990002;28;20070;-74
2022/01/30 05:35:00;;;;;;;6.15;2.20;;;;;;;4.48;91.05;96155.66;4988349;28;20050;-74
2022/01/30 05:37:26;;;;;;;4.20;2.08;;;;;;;4.50;91.04;96162.25;4988644;28;20049;-73
2022/01/30 05:39:52;;;;;;;3.15;1.95;;;;;;;4.51;91.15;96163.84;4988958;28;20038;-74
2022/01/30 05:42:22;;;;;;;4.15;2.38;;;;;;;4.45;92.82;96169.13;4989494;28;20051;-74
2022/01/30 05:47:51;;;;;;;3.95;2.20;;;;;;;4.31;95.10;96174.44;4984495;28;20062;-74
2022/01/30 05:50:17;;;;;;;4.47;2.30;;;;;;;4.21;97.04;96171.53;4988566;28;20497;-74
2022/01/30 05:52:42;;;;;;;4.43;2.38;;;;;;;4.25;97.94;96190.94;4989848;28;20042;-74
2022/01/30 05:55:08;;;;;;;5.43;2.42;;;;;;;4.11;98.18;96173.81;4988733;28;20580;-74
2022/01/30 05:57:34;;;;;;;5.63;2.42;;;;;;;4.14;99.30;96181.19;4988612;28;20046;-74
2022/01/30 06:00:00;;;;;;;4.53;2.70;;;;;;;3.98;100.00;96180.69;4984496;28;20046;-74
2022/01/30 06:02:25;;;;;;;6.80;3.00;;;;;;;3.94;99.67;96192.53;4992858;28;20048;-74
2022/01/30 06:04:51;;;;;;;5.95;3.08;;;;;;;3.92;100.00;96186.75;4992660;28;20042;-74
2022/01/30 06:07:21;;;;;;;5.32;2.60;;;;;;;3.91;100.00;96190.34;4992405;28;20042;-74
2022/01/30 06:09:46;;;;;;;6.65;2.85;;;;;;;3.94;100.00;96184.72;4992881;28;20096;-74
2022/01/30 06:12:12;;;;;;;3.95;2.47;;;;;;;3.96;100.00;96187.91;4993428;28;20047;-73
2022/01/30 06:14:37;;;;;;;6.25;3.00;;;;;;;3.84;100.00;96194.81;5000881;28;20053;-74
2022/01/30 06:17:03;;;;;;;9.15;2.42;;;;;;;3.85;100.00;96190.38;4994407;28;20046;-74
2022/01/30 06:19:29;;;;;;;4.53;2.72;;;;;;;3.77;100.00;96194.06;5000901;28;20108;-74
2022/01/30 06:21:54;;;;;;;5.97;3.28;;;;;;;3.75;100.00;96196.03;4995944;28;20566;-74
2022/01/30 06:24:20;;;;;;;6.40;3.00;;;;;;;3.69;100.00;96196.88;4988243;28;20050;-74
2022/01/30 06:26:45;;;;;;;5.53;2.95;;;;;;;3.77;100.00;96199.25;4977409;28;20039;-74
2022/01/30 06:29:11;;;;;;;4.20;2.35;;;;;;;3.80;100.00;96194.41;4997777;28;20041;-74
2022/01/30 06:31:37;;;;;;;5.90;2.88;;;;;;;3.74;100.00;96207.50;4993629;28;20504;-73
2022/01/30 06:34:02;;;;;;;6.30;3.05;;;;;;;3.69;100.00;96197.69;4997838;28;20112;-74
2022/01/30 06:36:28;;;;;;;6.93;3.13;;;;;;;3.71;100.00;96205.31;4996869;28;20046;-73
2022/01/30 06:38:53;;;;;;;6.30;3.25;;;;;;;3.62;100.00;96202.13;4991168;28;20049;-74
2022/01/30 06:41:19;;;;;;;6.22;3.22;;;;;;;3.77;100.00;96207.06;4973733;28;20057;-74
2022/01/30 06:43:45;;;;;;;7.32;3.70;;;;;;;3.64;100.00;96190.50;4990428;28;20050;-74
2022/01/30 06:46:11;;;;;;;6.53;3.38;;;;;;;3.76;100.00;96197.66;4992490;28;20066;-74
2022/01/30 06:48:38;;;;;;;6.65;3.17;;;;;;;3.78;100.00;96195.66;4995027;28;20170;-74
2022/01/30 06:51:05;;;;;;;6.80;3.47;;;;;;;3.75;100.00;96211.66;4997991;28;20093;-73
2022/01/30 06:53:31;;;;;;;6.35;3.40;;;;;;;3.80;100.00;96217.06;4991916;28;20046;-74
2022/01/30 06:55:56;;;;;;;5.63;2.60;;;;;;;3.84;100.00;96220.84;4989262;28;20042;-74
2022/01/30 06:58:22;;;;;;;4.97;2.92;;;;;;;3.78;100.00;96216.47;4986494;28;20057;-73
2022/01/30 07:00:48;;;;;;;5.20;2.97;;;;;;;3.81;100.00;96236.88;4991633;28;20042;-74
2022/01/30 07:03:13;;;;;;;4.03;2.20;;;;;;;3.90;100.00;96246.03;4991303;28;20054;-74
2022/01/30 07:05:39;;;;;;;5.55;2.30;;;;;;;3.90;100.00;96246.03;4998093;28;20643;-74
2022/01/30 07:08:05;;;;;;;5.20;2.78;;;;;;;3.86;100.00;96237.03;4991607;28;20043;-73
2022/01/30 07:10:30;;;;;;;6.25;2.45;;;;;;;3.85;100.00;96240.69;4999633;28;20088;-74
2022/01/30 07:12:56;;;;;;;4.55;2.30;;;;;;;3.83;100.00;96245.28;4991294;28;20089;-74
2022/01/30 07:15:22;;;;;;;4.60;2.60;;;;;;;3.95;100.00;96238.41;4991853;28;20046;-74
2022/01/30 07:17:48;;;;;;;6.10;2.30;;;;;;;3.92;100.00;96246.66;4998717;28;20039;-74
2022/01/30 07:20:13;;;;;;;5.78;2.70;;;;;;;3.82;100.00;96238.47;4991081;28;20050;-74
2022/01/30 07:22:39;;;;;;;5.07;2.38;;;;;;;3.87;100.00;96241.25;5002552;28;20069;-74
2022/01/30 07:25:08;;;;;;;5.30;2.45;;;;;;;3.91;100.00;96242.44;4988645;28;20046;-74
2022/01/30 07:27:37;;;;;;;5.80;2.65;;;;;;;3.86;100.00;96239.66;5007883;28;20042;-74
2022/01/30 07:30:04;;;;;;;3.80;2.30;;;;;;;3.90;100.00;96256.47;5002464;28;20046;-74
2022/01/30 07:32:30;;;;;;;4.15;2.20;;;;;;;4.04;99.42;96252.00;4992864;28;20046;-74
2022/01/30 07:34:56;;;;;;;3.90;2.38;;;;;;;3.99;99.77;96265.66;4990041;28;20034;-74
2022/01/30 07:37:23;;;;;;;4.38;2.40;;;;;;;3.96;99.43;96268.63;4990009;28;20554;-74
2022/01/30 07:39:49;;;;;;;3.17;2.03;;;;;;;4.06;99.28;96275.22;4992607;28;20048;-74
2022/01/30 07:42:15;;;;;;;5.43;2.75;;;;;;;4.13;99.57;96284.59;4987536;28;20113;-71
2022/01/30 07:44:40;;;;;;;4.97;2.13;;;;;;;4.11;99.65;96272.78;4988767;28;20124;-71
2022/01/30 07:47:06;;;;;;;3.50;2.05;;;;;;;4.14;98.90;96273.16;4989367;28;20081;-74
2022/01/30 07:49:32;;;;;;;4.13;2.30;;;;;;;4.16;98.66;96275.56;4990069;28;20042;-73
2022/01/30 07:51:58;;;;;;;3.67;2.53;;;;;;;4.06;98.66;96275.22;4990504;28;20042;-73
2022/01/30 07:54:23;;;;;;;3.55;2.00;;;;;;;4.11;98.64;96259.78;4986055;28;20042;-74
2022/01/30 07:56:49;;;;;;;5.25;2.10;;;;;;;4.14;97.17;96259.34;4989900;28;20042;-75
2022/01/30 07:59:14;;;;;;;4.20;2.28;;;;;;;4.18;96.25;96247.50;4988038;28;20077;-73
2022/01/30 08:01:40;;;;;;;3.85;2.00;;;;;;;4.15;96.71;96260.94;4992987;28;20046;-75
2022/01/30 08:04:07;;;;;;;3.72;1.85;;;;;;;4.16;95.96;96262.53;4989426;28;20049;-76
2022/01/30 08:06:33;;;;;;;3.60;2.00;;;;;;;4.22;97.18;96248.66;4990696;28;20289;-75
2022/01/30 08:08:59;;;;;;;4.50;2.20;;;;;;;4.21;94.15;96262.72;4990447;28;20061;-76
2022/01/30 08:11:25;;;;;;;6.13;1.95;;;;;;;4.14;95.21;96267.16;4987681;28;20408;-75
2022/01/30 08:13:50;;;;;;;5.05;2.13;;;;;;;4.10;94.41;96258.97;4993663;28;20070;-74
2022/01/30 08:16:16;;;;;;;9.75;2.55;;;;;;;3.96;95.05;96266.03;4990827;28;20042;-74
2022/01/30 08:18:42;;;;;;;5.72;2.10;;;;;;;3.86;95.52;96296.94;4997904;28;20097;-74
2022/01/30 08:21:07;;;;;;;9.48;2.38;;;;;;;3.62;95.35;96296.63;4990354;28;20042;-75
2022/01/30 08:23:33;;;;;;;10.55;2.13;;;;;;;3.50;96.75;96298.25;4988011;28;20053;-75
2022/01/30 08:26:00;;;;;;;6.63;2.20;;;;;;;3.37;97.84;96300.91;4987299;28;20063;-75
2022/01/30 08:28:26;;;;;;;6.18;1.92;;;;;;;3.41;98.87;96299.50;4990951;28;20073;-77
2022/01/30 08:30:52;;;;;;;8.50;2.25;;;;;;;3.41;98.90;96273.50;4993360;28;20718;-76
2022/01/30 08:33:17;;;;;;;5.65;1.58;;;;;;;3.50;100.00;96295.66;4993230;28;20049;-76
2022/01/30 08:35:44;;;;;;;6.38;2.03;;;;;;;3.51;100.00;96299.88;4990065;28;20077;-75
2022/01/30 08:38:18;;;;;;;4.28;2.13;;;;;;;3.49;100.00;96296.66;4989665;28;20062;-74
2022/01/30 08:40:45;;;;;;;4.95;1.85;;;;;;;3.57;100.00;96299.03;4992104;28;20042;-75
2022/01/30 08:43:11;;;;;;;3.90;1.50;;;;;;;3.66;99.09;96297.00;4989688;28;20030;-75
2022/01/30 08:45:37;;;;;;;4.95;1.60;;;;;;;3.71;96.87;96291.22;4996373;28;20049;-78
2022/01/30 08:48:03;;;;;;;2.97;1.60;;;;;;;3.79;95.77;96296.16;4999929;28;20073;-76
2022/01/30 08:50:29;;;;;;;2.85;1.65;;;;;;;3.94;95.05;96314.94;5007269;28;20038;-75
2022/01/30 08:52:54;;;;;;;2.65;1.60;;;;;;;4.06;95.96;96301.25;5008284;28;20049;-74
2022/01/30 08:55:20;;;;;;;5.18;1.45;;;;;;;4.12;95.44;96310.84;4988323;28;20046;-76
2022/01/30 08:57:47;;;;;;;3.10;1.50;;;;;;;4.12;94.43;96313.44;4996990;28;20050;-76
2022/01/30 09:00:15;;;;;;;3.75;1.80;;;;;;;4.23;93.70;96312.78;4998513;28;20826;-76
2022/01/30 09:02:42;;;;;;;7.88;1.83;;;;;;;4.38;93.57;96311.72;4996570;28;20500;-77
2022/01/30 09:05:09;;;;;;;2.90;1.30;;;;;;;4.42;93.75;96310.28;4983371;28;20104;-75
2022/01/30 09:07:35;;;;;;;3.90;1.80;;;;;;;4.47;92.69;96313.84;4990334;28;20054;-74
2022/01/30 09:10:02;;;;;;;4.40;1.83;;;;;;;4.58;92.19;96324.63;4989542;28;20038;-75
2022/01/30 09:12:27;;;;;;;10.55;2.17;;;;;;;4.50;91.45;96323.06;4994267;28;20038;-75
2022/01/30 09:14:53;;;;;;;4.78;1.58;;;;;;;4.63;90.91;96320.38;4992264;28;20077;-73
2022/01/30 09:17:19;;;;;;;4.80;1.83;;;;;;;4.53;89.71;96333.06;4995782;28;20045;-74
2022/01/30 09:19:47;;;;;;;5.50;1.80;;;;;;;4.40;90.30;96338.38;4992001;28;20042;-73
2022/01/30 09:22:15;;;;;;;4.50;1.90;;;;;;;4.51;89.42;96340.28;4989047;28;20558;-72
2022/01/30 09:24:41;;;;;;;3.47;2.00;;;;;;;4.56;90.28;96353.50;4999052;28;20121;-72
2022/01/30 09:27:08;;;;;;;5.20;1.85;;;;;;;4.69;88.69;96336.97;4992604;28;20493;-74
2022/01/30 09:29:35;;;;;;;6.40;2.10;;;;;;;4.74;88.31;96338.94;5014289;28;20046;-72
2022/01/30 09:32:01;;;;;;;5.93;2.00;;;;;;;4.60;88.37;96349.47;4999385;28;20077;-73
2022/01/30 09:34:27;;;;;;;7.65;2.40;;;;;;;4.64;87.98;96342.84;4998508;28;20038;-75
2022/01/30 09:36:53;;;;;;;5.32;1.90;;;;;;;4.73;87.62;96337.38;4989432;28;20062;-74
2022/01/30 09:39:19;;;;;;;3.88;1.75;;;;;;;4.77;86.40;96346.34;4981400;28;20074;-75
2022/01/30 09:41:45;;;;;;;5.90;2.10;;;;;;;4.72;85.27;96336.56;5004354;28;20041;-74
2022/01/30 09:44:11;;;;;;;13.43;2.35;;;;;;;4.56;84.61;96342.28;5005424;28;20522;-74
2022/01/30 09:46:42;;;;;;;4.60;2.17;;;;;;;4.67;83.80;96339.78;5000441;28;20065;-74
2022/01/30 09:49:09;;;;;;;7.15;2.08;;;;;;;4.56;84.03;96332.66;4998675;28;20038;-74
2022/01/30 09:51:36;;;;;;;6.90;2.17;;;;;;;4.66;82.96;96338.19;4992381;28;20077;-75
2022/01/30 09:54:03;;;;;;;8.80;2.45;;;;;;;4.94;80.94;96344.84;4999341;28;20133;-75
2022/01/30 09:56:29;;;;;;;7.78;2.20;;;;;;;4.85;78.58;96346.09;4991054;28;20045;-72
2022/01/30 09:58:54;;;;;;;7.72;2.10;;;;;;;5.07;76.85;96332.69;4989612;28;20054;-73
2022/01/30 10:01:21;;;;;;;5.35;2.10;;;;;;;5.09;75.85;96341.91;4985230;28;20053;-73
2022/01/30 10:03:48;;;;;;;7.90;2.17;;;;;;;5.77;73.03;96332.41;4987497;28;20073;-73
2022/01/30 10:06:20;;;;;;;12.80;2.70;;;;;;;4.99;74.45;96331.94;4988087;28;20118;-72
2022/01/30 10:08:48;;;;;;;12.70;2.47;;;;;;;4.65;72.99;96326.16;4987599;28;20046;-74
2022/01/30 10:11:41;;;;;;;5.28;2.38;;;;;;;4.63;73.13;96333.41;4990455;28;20050;-71
2022/01/30 10:14:16;;;;;;;11.68;2.70;;;;;;;4.59;73.56;96334.03;4982495;28;20124;-74
2022/01/30 10:16:47;;;;;;;11.75;2.13;;;;;;;4.63;73.60;96317.75;4999542;28;20034;-73
2022/01/30 10:19:23;;;;;;;8.63;2.03;;;;;;;4.62;74.29;96300.50;4992598;28;20124;-72
2022/01/30 10:22:08;;;;;;;8.75;2.55;;;;;;;4.60;75.92;96307.75;4988857;28;20045;-73
2022/01/30 10:24:38;;;;;;;12.10;2.38;;;;;;;4.75;76.98;96301.44;4987899;28;20914;-73
2022/01/30 10:27:22;;;;;;;9.13;2.40;;;;;;;4.72;77.13;96307.06;4982628;28;20049;-73
2022/01/30 10:30:04;;;;;;;9.40;2.50;;;;;;;5.52;74.05;96304.53;4984186;28;20500;-72
2022/01/30 10:32:31;;;;;;;10.65;2.63;;;;;;;5.08;79.24;96310.81;4985898;28;20049;-72
2022/01/30 10:35:07;;;;;;;8.65;2.40;;;;;;;5.57;76.52;96321.38;4967610;28;20065;-72
2022/01/30 10:37:36;;;;;;;8.45;2.60;;;;;;;6.47;73.09;96331.16;4988171;28;20051;-72
2022/01/30 10:40:07;;;;;;;7.88;2.22;;;;;;;7.75;68.85;96319.41;4986039;28;20070;-73
2022/01/30 10:42:35;;;;;;;7.95;2.20;;;;;;;6.67;72.01;96323.03;4988581;28;20039;-74
2022/01/30 10:45:02;;;;;;;8.75;2.40;;;;;;;7.29;70.66;96321.84;5001574;28;20054;-72
2022/01/30 10:47:30;;;;;;;14.77;2.90;;;;;;;5.65;75.69;96328.94;4997372;28;20046;-73
2022/01/30 10:49:57;;;;;;;8.95;2.55;;;;;;;5.55;76.72;96324.22;4997647;28;20035;-72
2022/01/30 10:52:23;;;;;;;6.22;2.30;;;;;;;5.28;77.39;96334.09;5014004;28;20057;-72
2022/01/30 10:54:50;;;;;;;11.02;2.78;;;;;;;5.03;78.73;96327.88;5013587;28;20482;-73
2022/01/30 10:57:16;;;;;;;7.25;2.35;;;;;;;5.02;79.39;96326.28;5002481;28;20079;-73
2022/01/30 10:59:45;;;;;;;8.05;2.53;;;;;;;4.95;79.75;96330.75;4985789;28;20535;-73
2022/01/30 11:02:18;;;;;;;7.38;2.38;;;;;;;5.48;80.18;96332.09;5005063;28;20050;-72
2022/01/30 11:04:46;;;;;;;6.63;1.98;;;;;;;5.77;76.19;96331.59;4999489;28;20049;-72
2022/01/30 11:07:16;;;;;;;4.22;2.20;;;;;;;6.56;74.45;96326.41;5004271;28;20054;-73
2022/01/30 11:09:55;;;;;;;5.00;2.10;;;;;;;6.14;75.25;96329.00;5008225;28;20068;-72
2022/01/30 11:12:33;;;;;;;6.63;2.25;;;;;;;6.06;76.26;96330.91;4996533;28;20571;-74
2022/01/30 11:15:16;;;;;;;10.45;2.40;;;;;;;6.19;74.78;96329.13;4996047;28;20408;-74
2022/01/30 11:17:43;;;;;;;4.57;2.13;;;;;;;6.40;73.76;96326.00;4996817;28;20045;-72
2022/01/30 11:20:12;;;;;;;7.38;2.15;;;;;;;6.12;74.73;96307.50;5003870;28;20047;-72
2022/01/30 11:22:38;;;;;;;8.10;2.15;;;;;;;5.80;74.82;96320.72;4998081;28;20487;-72
2022/01/30 11:25:08;;;;;;;10.38;2.28;;;;;;;6.18;72.87;96312.66;4998710;28;20438;-73
2022/01/30 11:27:34;;;;;;;6.97;2.33;;;;;;;6.03;74.12;96305.22;4991803;28;20049;-74
2022/01/30 11:30:00;;;;;;;7.07;2.80;;;;;;;6.59;71.68;96297.19;4992109;28;20130;-74
2022/01/30 11:32:27;;;;;;;4.78;2.15;;;;;;;6.24;73.04;96310.97;4999944;28;20393;-74
2022/01/30 11:34:55;;;;;;;11.60;2.10;;;;;;;8.52;66.85;96291.22;4989629;28;20125;-74
2022/01/30 11:37:24;;;;;;;8.65;1.95;;;;;;;7.02;69.82;96298.72;4983702;28;20184;-76
2022/01/30 11:39:52;;;;;;;9.38;2.33;;;;;;;6.32;70.51;96307.22;4990440;28;20042;-76
2022/01/30 11:42:26;;;;;;;7.30;2.50;;;;;;;6.12;72.15;96307.50;4992074;28;20117;-73
2022/01/30 11:45:04;;;;;;;5.55;2.15;;;;;;;5.78;69.61;96312.31;4989110;28;20038;-75
2022/01/30 11:47:44;;;;;;;10.85;2.13;;;;;;;5.48;70.99;96292.16;4990492;28;20536;-74
2022/01/30 11:50:10;;;;;;;8.00;2.40;;;;;;;5.64;71.53;96291.56;4995616;28;20084;-74
2022/01/30 11:52:46;;;;;;;6.97;2.20;;;;;;;5.52;71.14;96293.31;4991688;28;20034;-75
2022/01/30 11:55:43;;;;;;;8.50;2.17;;;;;;;5.48;71.25;96289.53;4989726;28;20038;-73
2022/01/30 11:58:30;;;;;;;7.53;2.42;;;;;;;5.64;70.18;96288.16;4990886;28;20052;-73
2022/01/30 12:00:57;;;;;;;8.77;1.90;;;;;;;6.09;69.91;96276.59;4990410;28;20057;-76
2022/01/30 12:03:24;;;;;;;8.23;2.30;;;;;;;7.87;61.92;96285.31;4991148;28;20209;-74
2022/01/30 12:05:50;;;;;;;10.30;2.30;;;;;;;8.25;61.32;96270.81;5003016;28;20046;-74
2022/01/30 12:08:49;;;;;;;6.18;2.15;;;;;;;7.75;62.01;96277.50;4990963;28;20423;-73
2022/01/30 12:11:34;;;;;;;8.00;2.00;;;;;;;8.24;61.06;96279.72;4996715;28;20062;-77
2022/01/30 12:14:07;;;;;;;8.57;2.28;;;;;;;9.08;58.10;96267.69;4986754;28;20038;-72
2022/01/30 12:16:45;;;;;;;11.02;2.53;;;;;;;10.48;54.53;96271.72;4989578;28;20531;-72
2022/01/30 12:19:13;;;;;;;7.20;2.28;;;;;;;11.06;51.59;96264.03;4991360;28;20708;-72
2022/01/30 12:21:39;;;;;;;6.90;2.17;;;;;;;11.30;49.23;96257.56;4988464;28;20531;-72
2022/01/30 12:24:25;;;;;;;4.90;1.58;;;;;;;11.19;49.41;96262.78;4991301;28;20042;-72
2022/01/30 12:26:55;;;;;;;7.80;2.10;;;;;;;10.33;51.45;96266.28;4995428;28;20042;-72
2022/01/30 12:29:38;;;;;;;4.32;2.22;;;;;;;10.06;51.53;96261.81;4993325;28;20042;-72
2022/01/30 12:32:22;;;;;;;7.45;2.10;;;;;;;10.04;50.76;96266.53;4987516;28;20512;-72
2022/01/30 12:34:54;;;;;;;6.70;2.25;;;;;;;10.17;51.72;96263.53;4989833;28;20046;-72
2022/01/30 12:37:25;;;;;;;5.07;1.80;;;;;;;10.86;49.84;96269.94;4990336;28;20046;-72
2022/01/30 12:39:52;;;;;;;8.38;2.42;;;;;;;10.92;49.61;96268.94;4988395;28;20061;-74
2022/01/30 12:42:19;;;;;;;11.77;2.92;;;;;;;10.95;49.86;96245.75;4990635;28;20054;-74